sensor_id;sensor_type;location;lat;lon;timestamp;pressure;altitude;pressure_sealevel;temperature;humidity
61478;BME280;47345;52.334;10.392;2023-05-02T00:02:03;100856.05;;;12.96;66.34
61478;BME280;47345;52.334;10.392;2023-05-02T00:04:34;100853.82;;;12.95;66.19
61478;BME280;47345;52.334;10.392;2023-05-02T00:07:05;100857.20;;;12.95;66.03
61478;BME280;47345;52.334;10.392;2023-05-02T00:09:36;100853.15;;;12.93;66.01
61478;BME280;47345;52.334;10.392;2023-05-02T00:12:07;100856.63;;;12.92;65.99
61478;BME280;47345;52.334;10.392;2023-05-02T00:14:38;100856.46;;;12.91;65.86
61478;BME280;47345;52.334;10.392;2023-05-02T00:17:09;100856.09;;;12.90;65.71
61478;BME280;47345;52.334;10.392;2023-05-02T00:19:45;100856.77;;;12.90;65.58
61478;BME280;47345;52.334;10.392;2023-05-02T00:22:16;100858.84;;;12.90;65.58
61478;BME280;47345;52.334;10.392;2023-05-02T00:24:47;100859.68;;;12.90;65.31
61478;BME280;47345;52.334;10.392;2023-05-02T00:27:18;100856.52;;;12.88;64.99
61478;BME280;47345;52.334;10.392;2023-05-02T00:29:48;100861.71;;;12.88;64.88
61478;BME280;47345;52.334;10.392;2023-05-02T00:32:20;100857.88;;;12.86;64.82
61478;BME280;47345;52.334;10.392;2023-05-02T00:34:52;100860.84;;;12.86;64.89
61478;BME280;47345;52.334;10.392;2023-05-02T00:37:26;100865.20;;;12.86;65.02
61478;BME280;47345;52.334;10.392;2023-05-02T00:39:58;100864.89;;;12.86;65.16
61478;BME280;47345;52.334;10.392;2023-05-02T00:42:30;100866.75;;;12.87;65.72
61478;BME280;47345;52.334;10.392;2023-05-02T00:45:06;100869.33;;;12.88;65.99
61478;BME280;47345;52.334;10.392;2023-05-02T00:47:36;100865.36;;;12.86;66.11
61478;BME280;47345;52.334;10.392;2023-05-02T00:50:09;100869.42;;;12.84;66.25
61478;BME280;47345;52.334;10.392;2023-05-02T00:52:39;100870.58;;;12.83;66.24
61478;BME280;47345;52.334;10.392;2023-05-02T00:55:10;100871.84;;;12.81;66.42
61478;BME280;47345;52.334;10.392;2023-05-02T00:57:41;100870.88;;;12.79;66.48
61478;BME280;47345;52.334;10.392;2023-05-02T01:00:14;100869.96;;;12.75;66.81
61478;BME280;47345;52.334;10.392;2023-05-02T01:02:50;100873.46;;;12.72;66.88
61478;BME280;47345;52.334;10.392;2023-05-02T01:05:27;100872.14;;;12.66;66.93
61478;BME280;47345;52.334;10.392;2023-05-02T01:08:09;100870.40;;;12.60;66.99
61478;BME280;47345;52.334;10.392;2023-05-02T01:10:48;100869.98;;;12.53;67.18
61478;BME280;47345;52.334;10.392;2023-05-02T01:13:25;100872.10;;;12.45;67.50
61478;BME280;47345;52.334;10.392;2023-05-02T01:15:59;100874.68;;;12.42;67.46
61478;BME280;47345;52.334;10.392;2023-05-02T01:18:34;100873.98;;;12.39;67.52
61478;BME280;47345;52.334;10.392;2023-05-02T01:21:08;100874.88;;;12.35;67.31
61478;BME280;47345;52.334;10.392;2023-05-02T01:23:44;100874.91;;;12.34;67.37
61478;BME280;47345;52.334;10.392;2023-05-02T01:26:19;100873.27;;;12.32;67.39
61478;BME280;47345;52.334;10.392;2023-05-02T01:28:58;100881.02;;;12.32;67.41
61478;BME280;47345;52.334;10.392;2023-05-02T01:31:33;100884.29;;;12.29;67.54
61478;BME280;47345;52.334;10.392;2023-05-02T01:34:06;100884.30;;;12.27;67.52
61478;BME280;47345;52.334;10.392;2023-05-02T01:36:43;100885.66;;;12.23;67.30
61478;BME280;47345;52.334;10.392;2023-05-02T01:39:19;100886.60;;;12.20;67.13
61478;BME280;47345;52.334;10.392;2023-05-02T01:41:52;100885.77;;;12.19;66.96
61478;BME280;47345;52.334;10.392;2023-05-02T01:44:25;100886.11;;;12.18;66.65
61478;BME280;47345;52.334;10.392;2023-05-02T01:46:57;100890.04;;;12.17;66.62
61478;BME280;47345;52.334;10.392;2023-05-02T01:49:30;100884.93;;;12.17;66.48
61478;BME280;47345;52.334;10.392;2023-05-02T01:52:06;100882.15;;;12.17;66.28
61478;BME280;47345;52.334;10.392;2023-05-02T01:54:40;100885.09;;;12.17;66.19
61478;BME280;47345;52.334;10.392;2023-05-02T01:57:13;100886.11;;;12.16;66.32
61478;BME280;47345;52.334;10.392;2023-05-02T01:59:45;100885.86;;;12.17;66.31
61478;BME280;47345;52.334;10.392;2023-05-02T02:02:18;100886.73;;;12.16;66.49
61478;BME280;47345;52.334;10.392;2023-05-02T02:04:49;100888.55;;;12.14;66.76
61478;BME280;47345;52.334;10.392;2023-05-02T02:07:22;100892.73;;;12.16;66.84
61478;BME280;47345;52.334;10.392;2023-05-02T02:09:53;100897.95;;;12.18;67.02
61478;BME280;47345;52.334;10.392;2023-05-02T02:12:27;100901.32;;;12.20;67.18
61478;BME280;47345;52.334;10.392;2023-05-02T02:15:02;100904.19;;;12.20;67.31
61478;BME280;47345;52.334;10.392;2023-05-02T02:17:38;100901.59;;;12.17;67.64
61478;BME280;47345;52.334;10.392;2023-05-02T02:20:11;100903.80;;;12.13;67.95
61478;BME280;47345;52.334;10.392;2023-05-02T02:22:45;100905.66;;;12.08;68.44
61478;BME280;47345;52.334;10.392;2023-05-02T02:25:18;100908.70;;;12.05;68.28
61478;BME280;47345;52.334;10.392;2023-05-02T02:27:49;100908.70;;;12.02;68.26
61478;BME280;47345;52.334;10.392;2023-05-02T02:30:21;100915.27;;;12.00;68.36
61478;BME280;47345;52.334;10.392;2023-05-02T02:32:52;100919.09;;;11.98;68.39
61478;BME280;47345;52.334;10.392;2023-05-02T02:35:23;100921.76;;;11.96;68.73
61478;BME280;47345;52.334;10.392;2023-05-02T02:38:01;100926.34;;;11.94;68.90
61478;BME280;47345;52.334;10.392;2023-05-02T02:40:40;100933.35;;;11.93;69.22
61478;BME280;47345;52.334;10.392;2023-05-02T02:43:22;100935.84;;;11.92;69.63
61478;BME280;47345;52.334;10.392;2023-05-02T02:46:01;100934.70;;;11.90;69.68
61478;BME280;47345;52.334;10.392;2023-05-02T02:48:42;100936.05;;;11.86;69.70
61478;BME280;47345;52.334;10.392;2023-05-02T02:51:22;100947.02;;;11.82;69.99
61478;BME280;47345;52.334;10.392;2023-05-02T02:53:59;100950.42;;;11.80;70.05
61478;BME280;47345;52.334;10.392;2023-05-02T02:56:40;100952.66;;;11.76;70.05
61478;BME280;47345;52.334;10.392;2023-05-02T02:59:17;100948.44;;;11.72;69.98
61478;BME280;47345;52.334;10.392;2023-05-02T03:01:55;100955.56;;;11.69;70.09
61478;BME280;47345;52.334;10.392;2023-05-02T03:04:32;100960.21;;;11.66;70.06
61478;BME280;47345;52.334;10.392;2023-05-02T03:07:03;100960.17;;;11.62;70.28
61478;BME280;47345;52.334;10.392;2023-05-02T03:09:45;100963.88;;;11.59;70.43
61478;BME280;47345;52.334;10.392;2023-05-02T03:12:17;100966.19;;;11.57;70.61
61478;BME280;47345;52.334;10.392;2023-05-02T03:14:48;100971.70;;;11.54;70.81
61478;BME280;47345;52.334;10.392;2023-05-02T03:17:20;100973.05;;;11.52;71.07
61478;BME280;47345;52.334;10.392;2023-05-02T03:19:54;100978.65;;;11.50;71.20
61478;BME280;47345;52.334;10.392;2023-05-02T03:22:26;100981.58;;;11.48;71.45
61478;BME280;47345;52.334;10.392;2023-05-02T03:24:56;100981.39;;;11.47;71.73
61478;BME280;47345;52.334;10.392;2023-05-02T03:27:27;100981.04;;;11.45;71.98
61478;BME280;47345;52.334;10.392;2023-05-02T03:29:58;100986.59;;;11.45;72.32
61478;BME280;47345;52.334;10.392;2023-05-02T03:32:29;100991.33;;;11.44;72.54
61478;BME280;47345;52.334;10.392;2023-05-02T03:35:00;100994.81;;;11.42;72.73
61478;BME280;47345;52.334;10.392;2023-05-02T03:37:31;100999.95;;;11.41;73.18
61478;BME280;47345;52.334;10.392;2023-05-02T03:40:04;100996.06;;;11.38;73.75
61478;BME280;47345;52.334;10.392;2023-05-02T03:42:36;101001.40;;;11.35;74.12
61478;BME280;47345;52.334;10.392;2023-05-02T03:45:10;101003.88;;;11.32;74.37
61478;BME280;47345;52.334;10.392;2023-05-02T03:47:41;101001.77;;;11.31;74.59
61478;BME280;47345;52.334;10.392;2023-05-02T03:50:13;101003.95;;;11.31;75.01
61478;BME280;47345;52.334;10.392;2023-05-02T03:52:43;101007.41;;;11.31;75.04
61478;BME280;47345;52.334;10.392;2023-05-02T03:55:14;101006.61;;;11.30;75.15
61478;BME280;47345;52.334;10.392;2023-05-02T03:57:45;101008.89;;;11.31;75.24
61478;BME280;47345;52.334;10.392;2023-05-02T04:00:16;101010.54;;;11.31;75.30
61478;BME280;47345;52.334;10.392;2023-05-02T04:02:47;101007.29;;;11.31;75.47
61478;BME280;47345;52.334;10.392;2023-05-02T04:05:19;101010.11;;;11.31;75.55
61478;BME280;47345;52.334;10.392;2023-05-02T04:07:50;101008.77;;;11.32;75.67
61478;BME280;47345;52.334;10.392;2023-05-02T04:10:22;101013.23;;;11.31;75.73
61478;BME280;47345;52.334;10.392;2023-05-02T04:12:53;101018.75;;;11.34;75.80
61478;BME280;47345;52.334;10.392;2023-05-02T04:15:24;101022.09;;;11.34;76.04
61478;BME280;47345;52.334;10.392;2023-05-02T04:17:55;101022.52;;;11.35;76.18
61478;BME280;47345;52.334;10.392;2023-05-02T04:20:27;101025.77;;;11.35;76.28
61478;BME280;47345;52.334;10.392;2023-05-02T04:22:58;101028.09;;;11.36;76.52
61478;BME280;47345;52.334;10.392;2023-05-02T04:25:29;101025.38;;;11.33;76.70
61478;BME280;47345;52.334;10.392;2023-05-02T04:28:00;101034.27;;;11.35;76.71
61478;BME280;47345;52.334;10.392;2023-05-02T04:30:31;101038.73;;;11.36;76.69
61478;BME280;47345;52.334;10.392;2023-05-02T04:33:02;101042.74;;;11.36;76.80
61478;BME280;47345;52.334;10.392;2023-05-02T04:35:33;101045.02;;;11.36;76.95
61478;BME280;47345;52.334;10.392;2023-05-02T04:38:04;101048.48;;;11.36;77.04
61478;BME280;47345;52.334;10.392;2023-05-02T04:40:34;101048.87;;;11.38;77.20
61478;BME280;47345;52.334;10.392;2023-05-02T04:43:06;101053.45;;;11.39;77.02
61478;BME280;47345;52.334;10.392;2023-05-02T04:45:37;101053.03;;;11.40;77.12
61478;BME280;47345;52.334;10.392;2023-05-02T04:48:08;101061.73;;;11.40;77.20
61478;BME280;47345;52.334;10.392;2023-05-02T04:50:39;101063.25;;;11.41;77.45
61478;BME280;47345;52.334;10.392;2023-05-02T04:53:10;101063.63;;;11.42;77.38
61478;BME280;47345;52.334;10.392;2023-05-02T04:55:41;101072.86;;;11.43;77.51
61478;BME280;47345;52.334;10.392;2023-05-02T04:58:12;101077.79;;;11.43;77.69
61478;BME280;47345;52.334;10.392;2023-05-02T05:00:44;101080.85;;;11.42;78.12
61478;BME280;47345;52.334;10.392;2023-05-02T05:03:15;101086.98;;;11.41;79.11
61478;BME280;47345;52.334;10.392;2023-05-02T05:05:46;101090.08;;;11.38;79.36
61478;BME280;47345;52.334;10.392;2023-05-02T05:08:16;101094.11;;;11.36;79.70
61478;BME280;47345;52.334;10.392;2023-05-02T05:10:47;101095.83;;;11.35;79.86
61478;BME280;47345;52.334;10.392;2023-05-02T05:13:18;101099.33;;;11.34;79.94
61478;BME280;47345;52.334;10.392;2023-05-02T05:15:49;101102.11;;;11.34;80.24
61478;BME280;47345;52.334;10.392;2023-05-02T05:18:20;101102.81;;;11.33;80.52
61478;BME280;47345;52.334;10.392;2023-05-02T05:20:51;101107.91;;;11.32;80.82
61478;BME280;47345;52.334;10.392;2023-05-02T05:23:22;101112.59;;;11.32;81.52
61478;BME280;47345;52.334;10.392;2023-05-02T05:25:53;101116.79;;;11.31;82.08
61478;BME280;47345;52.334;10.392;2023-05-02T05:28:24;101121.85;;;11.28;82.26
61478;BME280;47345;52.334;10.392;2023-05-02T05:30:55;101126.67;;;11.27;82.60
61478;BME280;47345;52.334;10.392;2023-05-02T05:33:26;101134.75;;;11.25;83.35
61478;BME280;47345;52.334;10.392;2023-05-02T05:36:04;101133.55;;;11.20;84.24
61478;BME280;47345;52.334;10.392;2023-05-02T05:38:36;101137.69;;;11.16;85.18
61478;BME280;47345;52.334;10.392;2023-05-02T05:41:07;101138.98;;;11.11;86.06
61478;BME280;47345;52.334;10.392;2023-05-02T05:43:38;101144.98;;;11.06;86.50
61478;BME280;47345;52.334;10.392;2023-05-02T05:46:08;101151.39;;;11.01;87.98
61478;BME280;47345;52.334;10.392;2023-05-02T05:48:39;101152.42;;;10.93;88.29
61478;BME280;47345;52.334;10.392;2023-05-02T05:51:10;101160.21;;;10.82;88.67
61478;BME280;47345;52.334;10.392;2023-05-02T05:53:40;101161.02;;;10.71;89.55
61478;BME280;47345;52.334;10.392;2023-05-02T05:56:12;101170.36;;;10.63;89.90
61478;BME280;47345;52.334;10.392;2023-05-02T05:58:44;101169.24;;;10.58;90.16
61478;BME280;47345;52.334;10.392;2023-05-02T06:01:15;101173.23;;;10.54;90.60
61478;BME280;47345;52.334;10.392;2023-05-02T06:03:46;101178.02;;;10.51;91.04
61478;BME280;47345;52.334;10.392;2023-05-02T06:06:18;101182.59;;;10.49;91.05
61478;BME280;47345;52.334;10.392;2023-05-02T06:08:49;101188.09;;;10.48;91.43
61478;BME280;47345;52.334;10.392;2023-05-02T06:11:20;101199.80;;;10.43;92.07
61478;BME280;47345;52.334;10.392;2023-05-02T06:13:51;101208.98;;;10.32;91.36
61478;BME280;47345;52.334;10.392;2023-05-02T06:16:22;101217.81;;;10.18;91.26
61478;BME280;47345;52.334;10.392;2023-05-02T06:18:53;101228.67;;;10.02;91.48
61478;BME280;47345;52.334;10.392;2023-05-02T06:21:23;101227.94;;;9.88;91.58
61478;BME280;47345;52.334;10.392;2023-05-02T06:23:54;101235.57;;;9.73;91.77
61478;BME280;47345;52.334;10.392;2023-05-02T06:26:25;101241.60;;;9.62;92.64
61478;BME280;47345;52.334;10.392;2023-05-02T06:28:56;101253.11;;;9.53;93.23
61478;BME280;47345;52.334;10.392;2023-05-02T06:31:27;101253.60;;;9.43;93.19
61478;BME280;47345;52.334;10.392;2023-05-02T06:33:58;101254.60;;;9.35;92.91
61478;BME280;47345;52.334;10.392;2023-05-02T06:36:29;101263.36;;;9.30;92.93
61478;BME280;47345;52.334;10.392;2023-05-02T06:39:00;101263.94;;;9.27;92.95
61478;BME280;47345;52.334;10.392;2023-05-02T06:41:30;101270.36;;;9.26;92.88
61478;BME280;47345;52.334;10.392;2023-05-02T06:44:02;101279.41;;;9.25;92.70
61478;BME280;47345;52.334;10.392;2023-05-02T06:46:34;101284.70;;;9.25;93.00
61478;BME280;47345;52.334;10.392;2023-05-02T06:49:07;101291.34;;;9.23;92.84
61478;BME280;47345;52.334;10.392;2023-05-02T06:51:42;101299.40;;;9.22;92.47
61478;BME280;47345;52.334;10.392;2023-05-02T06:54:13;101304.64;;;9.21;91.99
61478;BME280;47345;52.334;10.392;2023-05-02T06:56:44;101312.68;;;9.22;92.11
61478;BME280;47345;52.334;10.392;2023-05-02T06:59:14;101316.27;;;9.24;92.07
61478;BME280;47345;52.334;10.392;2023-05-02T07:01:46;101326.55;;;9.24;91.61
61478;BME280;47345;52.334;10.392;2023-05-02T07:04:17;101330.05;;;9.22;91.37
61478;BME280;47345;52.334;10.392;2023-05-02T07:06:48;101337.23;;;9.18;90.56
61478;BME280;47345;52.334;10.392;2023-05-02T07:09:20;101343.28;;;9.13;89.34
61478;BME280;47345;52.334;10.392;2023-05-02T07:11:51;101350.23;;;9.11;89.43
61478;BME280;47345;52.334;10.392;2023-05-02T07:14:22;101351.34;;;9.14;88.92
61478;BME280;47345;52.334;10.392;2023-05-02T07:16:53;101354.03;;;9.17;88.23
61478;BME280;47345;52.334;10.392;2023-05-02T07:19:24;101360.56;;;9.25;86.78
61478;BME280;47345;52.334;10.392;2023-05-02T07:21:55;101370.74;;;9.32;86.76
61478;BME280;47345;52.334;10.392;2023-05-02T07:24:25;101370.55;;;9.38;85.94
61478;BME280;47345;52.334;10.392;2023-05-02T07:26:56;101377.72;;;9.39;84.08
61478;BME280;47345;52.334;10.392;2023-05-02T07:29:27;101377.91;;;9.40;84.03
61478;BME280;47345;52.334;10.392;2023-05-02T07:31:59;101387.42;;;9.41;82.85
61478;BME280;47345;52.334;10.392;2023-05-02T07:34:29;101389.72;;;9.40;82.14
61478;BME280;47345;52.334;10.392;2023-05-02T07:37:00;101387.88;;;9.41;82.06
61478;BME280;47345;52.334;10.392;2023-05-02T07:39:33;101392.05;;;9.42;81.84
61478;BME280;47345;52.334;10.392;2023-05-02T07:42:04;101388.86;;;9.44;81.28
61478;BME280;47345;52.334;10.392;2023-05-02T07:44:35;101392.89;;;9.45;80.90
61478;BME280;47345;52.334;10.392;2023-05-02T07:47:06;101394.29;;;9.50;81.32
61478;BME280;47345;52.334;10.392;2023-05-02T07:49:37;101398.19;;;9.55;81.09
61478;BME280;47345;52.334;10.392;2023-05-02T07:52:08;101400.13;;;9.60;80.87
61478;BME280;47345;52.334;10.392;2023-05-02T07:54:38;101402.05;;;9.67;80.29
61478;BME280;47345;52.334;10.392;2023-05-02T07:57:10;101403.64;;;9.70;78.64
61478;BME280;47345;52.334;10.392;2023-05-02T07:59:41;101407.61;;;9.75;78.18
61478;BME280;47345;52.334;10.392;2023-05-02T08:02:12;101407.05;;;9.81;78.31
61478;BME280;47345;52.334;10.392;2023-05-02T08:04:43;101402.16;;;9.90;77.10
61478;BME280;47345;52.334;10.392;2023-05-02T08:07:13;101400.55;;;9.98;76.60
61478;BME280;47345;52.334;10.392;2023-05-02T08:09:45;101406.31;;;10.07;76.06
61478;BME280;47345;52.334;10.392;2023-05-02T08:12:15;101415.10;;;10.16;75.80
61478;BME280;47345;52.334;10.392;2023-05-02T08:14:47;101423.48;;;10.23;74.73
61478;BME280;47345;52.334;10.392;2023-05-02T08:17:18;101428.32;;;10.28;74.84
61478;BME280;47345;52.334;10.392;2023-05-02T08:19:49;101436.86;;;10.35;74.34
61478;BME280;47345;52.334;10.392;2023-05-02T08:22:20;101435.87;;;10.36;73.21
61478;BME280;47345;52.334;10.392;2023-05-02T08:24:50;101438.53;;;10.34;73.14
61478;BME280;47345;52.334;10.392;2023-05-02T08:27:21;101443.43;;;10.35;73.95
61478;BME280;47345;52.334;10.392;2023-05-02T08:29:52;101452.05;;;10.38;73.85
61478;BME280;47345;52.334;10.392;2023-05-02T08:32:23;101452.02;;;10.38;73.47
61478;BME280;47345;52.334;10.392;2023-05-02T08:34:56;101454.06;;;10.41;73.31
61478;BME280;47345;52.334;10.392;2023-05-02T08:37:27;101457.89;;;10.44;72.68
61478;BME280;47345;52.334;10.392;2023-05-02T08:39:58;101457.88;;;10.45;72.71
61478;BME280;47345;52.334;10.392;2023-05-02T08:42:32;101463.01;;;10.51;73.65
61478;BME280;47345;52.334;10.392;2023-05-02T08:45:06;101466.80;;;10.57;72.59
61478;BME280;47345;52.334;10.392;2023-05-02T08:47:39;101468.69;;;10.60;71.95
61478;BME280;47345;52.334;10.392;2023-05-02T08:50:11;101468.88;;;10.63;72.11
61478;BME280;47345;52.334;10.392;2023-05-02T08:52:42;101470.91;;;10.67;72.05
61478;BME280;47345;52.334;10.392;2023-05-02T08:55:13;101477.77;;;10.72;72.43
61478;BME280;47345;52.334;10.392;2023-05-02T08:57:45;101477.70;;;10.77;71.73
61478;BME280;47345;52.334;10.392;2023-05-02T09:00:17;101481.85;;;10.79;70.75
61478;BME280;47345;52.334;10.392;2023-05-02T09:02:59;101487.55;;;10.82;70.79
61478;BME280;47345;52.334;10.392;2023-05-02T09:05:40;101496.57;;;10.84;70.27
61478;BME280;47345;52.334;10.392;2023-05-02T09:08:11;101497.73;;;10.86;70.52
61478;BME280;47345;52.334;10.392;2023-05-02T09:10:42;101498.52;;;10.89;70.04
61478;BME280;47345;52.334;10.392;2023-05-02T09:13:33;101509.24;;;10.98;69.93
61478;BME280;47345;52.334;10.392;2023-05-02T09:16:06;101513.34;;;11.05;68.56
61478;BME280;47345;52.334;10.392;2023-05-02T09:18:39;101528.52;;;11.09;66.61
61478;BME280;47345;52.334;10.392;2023-05-02T09:21:12;101529.04;;;11.08;66.12
61478;BME280;47345;52.334;10.392;2023-05-02T09:23:46;101536.66;;;11.14;65.67
61478;BME280;47345;52.334;10.392;2023-05-02T09:26:19;101538.64;;;11.18;64.78
61478;BME280;47345;52.334;10.392;2023-05-02T09:28:51;101538.98;;;11.25;65.12
61478;BME280;47345;52.334;10.392;2023-05-02T09:31:24;101547.89;;;11.34;64.11
61478;BME280;47345;52.334;10.392;2023-05-02T09:34:16;101550.74;;;11.43;63.16
61478;BME280;47345;52.334;10.392;2023-05-02T09:36:47;101558.42;;;11.48;62.00
61478;BME280;47345;52.334;10.392;2023-05-02T09:39:21;101560.48;;;11.50;61.27
61478;BME280;47345;52.334;10.392;2023-05-02T09:41:54;101561.17;;;11.52;62.29
61478;BME280;47345;52.334;10.392;2023-05-02T09:44:26;101562.77;;;11.57;62.84
61478;BME280;47345;52.334;10.392;2023-05-02T09:47:05;101565.69;;;11.64;62.51
61478;BME280;47345;52.334;10.392;2023-05-02T09:49:41;101568.04;;;11.67;61.78
61478;BME280;47345;52.334;10.392;2023-05-02T09:52:15;101575.64;;;11.65;60.02
61478;BME280;47345;52.334;10.392;2023-05-02T09:54:46;101575.39;;;11.57;59.89
61478;BME280;47345;52.334;10.392;2023-05-02T09:57:19;101581.06;;;11.52;60.21
61478;BME280;47345;52.334;10.392;2023-05-02T09:59:57;101577.91;;;11.49;59.84
61478;BME280;47345;52.334;10.392;2023-05-02T10:02:27;101582.05;;;11.50;59.70
61478;BME280;47345;52.334;10.392;2023-05-02T10:05:01;101580.95;;;11.53;58.98
61478;BME280;47345;52.334;10.392;2023-05-02T10:07:34;101589.34;;;11.56;58.56
61478;BME280;47345;52.334;10.392;2023-05-02T10:10:07;101582.39;;;11.60;59.46
61478;BME280;47345;52.334;10.392;2023-05-02T10:12:42;101587.27;;;11.68;59.71
61478;BME280;47345;52.334;10.392;2023-05-02T10:15:15;101587.48;;;11.76;59.54
61478;BME280;47345;52.334;10.392;2023-05-02T10:17:48;101592.94;;;11.86;58.95
61478;BME280;47345;52.334;10.392;2023-05-02T10:20:24;101597.15;;;11.93;58.52
61478;BME280;47345;52.334;10.392;2023-05-02T10:22:59;101597.01;;;12.01;59.11
61478;BME280;47345;52.334;10.392;2023-05-02T10:25:30;101601.17;;;12.14;58.45
61478;BME280;47345;52.334;10.392;2023-05-02T10:28:04;101603.81;;;12.23;57.10
61478;BME280;47345;52.334;10.392;2023-05-02T10:30:35;101600.10;;;12.28;56.69
61478;BME280;47345;52.334;10.392;2023-05-02T10:33:07;101600.56;;;12.32;56.67
61478;BME280;47345;52.334;10.392;2023-05-02T10:35:40;101604.30;;;12.35;56.06
61478;BME280;47345;52.334;10.392;2023-05-02T10:38:14;101610.70;;;12.36;56.21
61478;BME280;47345;52.334;10.392;2023-05-02T10:40:56;101614.34;;;12.38;56.04
61478;BME280;47345;52.334;10.392;2023-05-02T10:43:32;101613.00;;;12.40;54.96
61478;BME280;47345;52.334;10.392;2023-05-02T10:46:31;101620.11;;;12.41;55.54
61478;BME280;47345;52.334;10.392;2023-05-02T10:49:03;101621.73;;;12.45;55.26
61478;BME280;47345;52.334;10.392;2023-05-02T10:51:36;101618.61;;;12.50;55.40
61478;BME280;47345;52.334;10.392;2023-05-02T10:54:26;101618.61;;;12.60;55.70
61478;BME280;47345;52.334;10.392;2023-05-02T10:57:05;101608.30;;;12.72;55.92
61478;BME280;47345;52.334;10.392;2023-05-02T10:59:38;101614.55;;;12.83;54.83
61478;BME280;47345;52.334;10.392;2023-05-02T11:02:48;101614.16;;;12.89;54.36
61478;BME280;47345;52.334;10.392;2023-05-02T11:05:20;101611.66;;;12.95;54.40
61478;BME280;47345;52.334;10.392;2023-05-02T11:08:30;101615.06;;;12.99;53.64
61478;BME280;47345;52.334;10.392;2023-05-02T11:11:39;101618.86;;;13.04;53.69
61478;BME280;47345;52.334;10.392;2023-05-02T11:14:11;101618.18;;;13.10;53.52
61478;BME280;47345;52.334;10.392;2023-05-02T11:17:09;101622.95;;;13.16;54.02
61478;BME280;47345;52.334;10.392;2023-05-02T11:23:21;101620.96;;;13.16;51.96
61478;BME280;47345;52.334;10.392;2023-05-02T11:25:56;101620.08;;;13.11;52.00
61478;BME280;47345;52.334;10.392;2023-05-02T11:28:42;101616.48;;;13.09;53.00
61478;BME280;47345;52.334;10.392;2023-05-02T11:34:45;101627.58;;;13.13;52.28
61478;BME280;47345;52.334;10.392;2023-05-02T11:37:19;101620.75;;;13.16;53.02
61478;BME280;47345;52.334;10.392;2023-05-02T11:39:51;101630.36;;;13.19;52.12
61478;BME280;47345;52.334;10.392;2023-05-02T11:42:32;101632.56;;;13.19;51.98
61478;BME280;47345;52.334;10.392;2023-05-02T11:45:04;101631.94;;;13.23;52.45
61478;BME280;47345;52.334;10.392;2023-05-02T11:47:34;101631.84;;;13.30;53.01
61478;BME280;47345;52.334;10.392;2023-05-02T11:50:07;101633.49;;;13.39;52.20
61478;BME280;47345;52.334;10.392;2023-05-02T11:52:39;101632.14;;;13.44;51.24
61478;BME280;47345;52.334;10.392;2023-05-02T11:55:12;101631.73;;;13.47;51.94
61478;BME280;47345;52.334;10.392;2023-05-02T11:57:43;101639.73;;;13.49;51.48
61478;BME280;47345;52.334;10.392;2023-05-02T12:00:15;101637.27;;;13.44;51.59
61478;BME280;47345;52.334;10.392;2023-05-02T12:02:46;101639.77;;;13.46;51.68
61478;BME280;47345;52.334;10.392;2023-05-02T12:05:27;101647.01;;;13.48;51.17
61478;BME280;47345;52.334;10.392;2023-05-02T12:07:59;101648.29;;;13.50;51.43
61478;BME280;47345;52.334;10.392;2023-05-02T12:10:37;101651.98;;;13.54;51.12
61478;BME280;47345;52.334;10.392;2023-05-02T12:13:09;101655.02;;;13.62;51.19
61478;BME280;47345;52.334;10.392;2023-05-02T12:15:40;101649.01;;;13.71;51.19
61478;BME280;47345;52.334;10.392;2023-05-02T12:18:12;101647.14;;;13.81;50.31
61478;BME280;47345;52.334;10.392;2023-05-02T12:20:44;101649.44;;;13.90;50.16
61478;BME280;47345;52.334;10.392;2023-05-02T12:23:15;101644.16;;;13.97;50.29
61478;BME280;47345;52.334;10.392;2023-05-02T12:25:46;101649.85;;;14.02;50.51
61478;BME280;47345;52.334;10.392;2023-05-02T12:28:18;101654.30;;;14.06;49.74
61478;BME280;47345;52.334;10.392;2023-05-02T12:30:50;101654.27;;;14.09;49.39
61478;BME280;47345;52.334;10.392;2023-05-02T12:33:21;101657.91;;;14.14;49.19
61478;BME280;47345;52.334;10.392;2023-05-02T12:35:52;101657.84;;;14.15;48.43
61478;BME280;47345;52.334;10.392;2023-05-02T12:38:22;101661.30;;;14.08;47.48
61478;BME280;47345;52.334;10.392;2023-05-02T12:40:54;101663.73;;;13.91;46.22
61478;BME280;47345;52.334;10.392;2023-05-02T12:43:26;101661.82;;;13.71;46.61
61478;BME280;47345;52.334;10.392;2023-05-02T12:46:10;101670.83;;;13.62;47.55
61478;BME280;47345;52.334;10.392;2023-05-02T12:48:41;101668.45;;;13.57;47.51
61478;BME280;47345;52.334;10.392;2023-05-02T12:51:24;101671.39;;;13.62;47.90
61478;BME280;47345;52.334;10.392;2023-05-02T12:53:56;101678.05;;;13.75;49.17
61478;BME280;47345;52.334;10.392;2023-05-02T12:56:27;101677.95;;;13.91;47.66
61478;BME280;47345;52.334;10.392;2023-05-02T12:59:01;101675.73;;;13.98;46.59
61478;BME280;47345;52.334;10.392;2023-05-02T13:01:34;101678.11;;;13.98;45.37
61478;BME280;47345;52.334;10.392;2023-05-02T13:04:05;101681.59;;;13.90;44.59
61478;BME280;47345;52.334;10.392;2023-05-02T13:06:36;101679.86;;;13.76;44.46
61478;BME280;47345;52.334;10.392;2023-05-02T13:09:06;101679.72;;;13.69;45.55
61478;BME280;47345;52.334;10.392;2023-05-02T13:11:37;101680.86;;;13.70;46.66
61478;BME280;47345;52.334;10.392;2023-05-02T13:14:09;101676.19;;;13.76;46.48
61478;BME280;47345;52.334;10.392;2023-05-02T13:16:39;101693.02;;;13.77;45.32
61478;BME280;47345;52.334;10.392;2023-05-02T13:19:10;101694.36;;;13.73;46.08